Time;durP1;ratioP1;P1;durP2;ratioP2;P2;SDS_P1;SDS_P2;PMS_P1;PMS_P2;Temp;Humidity;BMP_temperature;BMP_pressure;BME280_temperature;BME280_humidity;BME280_pressure;Samples;Min_cycle;Max_cycle;Signal;HPM_P1;HPM_P2
2021/12/23 00:01:19;;;;;;;;;;;18.10;49.70;;;;;;5113576;27;42908;-80
2021/12/23 00:03:45;;;;;;;;;;;18.10;49.80;;;;;;5126394;27;42859;-77
2021/12/23 00:06:10;;;;;;;;;;;18.10;49.70;;;;;;5126548;27;42880;-74
2021/12/23 00:08:36;;;;;;;;;;;18.10;49.80;;;;;;5126828;27;42875;-81
2021/12/23 00:11:01;;;;;;;;;;;18.10;49.70;;;;;;5126754;27;42975;-75
2021/12/23 00:13:27;;;;;;;;;;;18.10;49.70;;;;;;5126351;27;42908;-74
2021/12/23 00:23:56;;;;;;;;;;;18.10;49.60;;;;;;5125991;27;43265;-80
2021/12/23 00:26:22;;;;;;;;;;;18.10;49.70;;;;;;5126552;27;43009;-74
2021/12/23 00:28:47;;;;;;;;;;;18.10;49.70;;;;;;5126662;27;43572;-82
2021/12/23 00:31:14;;;;;;;;;;;18.10;49.60;;;;;;5126499;27;42816;-76
2021/12/23 00:33:41;;;;;;;;;;;18.10;49.70;;;;;;5126318;27;43020;-83
2021/12/23 00:36:09;;;;;;;;;;;18.10;49.60;;;;;;5126290;27;42816;-80
2021/12/23 00:38:40;;;;;;;;;;;18.10;49.60;;;;;;5126499;27;43574;-81
2021/12/23 00:41:07;;;;;;;;;;;18.10;49.40;;;;;;5108995;27;42987;-77
2021/12/23 00:43:33;;;;;;;;;;;18.10;49.40;;;;;;5105220;27;43467;-73
2021/12/23 00:45:59;;;;;;;;;;;18.10;49.30;;;;;;5105239;27;42986;-74
2021/12/23 00:48:25;;;;;;;;;;;18.10;49.30;;;;;;5105129;27;42854;-81
2021/12/23 00:50:51;;;;;;;;;;;18.10;49.30;;;;;;5105360;27;42958;-73
2021/12/23 00:53:19;;;;;;;;;;;18.00;49.20;;;;;;5105185;27;43419;-79
2021/12/23 00:55:51;;;;;;;;;;;18.00;49.20;;;;;;5105552;27;42946;-73
2021/12/23 00:58:17;;;;;;;;;;;18.00;49.20;;;;;;5104905;27;42846;-80
2021/12/23 01:00:43;;;;;;;;;;;18.00;49.20;;;;;;5104675;27;42972;-74
2021/12/23 01:03:08;;;;;;;;;;;18.00;49.10;;;;;;5104503;27;43178;-80
2021/12/23 01:05:34;;;;;;;;;;;18.00;49.10;;;;;;5105017;27;42952;-75
2021/12/23 01:07:59;;;;;;;;;;;18.00;49.10;;;;;;5104967;27;43233;-74
2021/12/23 01:10:26;;;;;;;;;;;18.00;49.00;;;;;;5104106;27;42770;-73
2021/12/23 01:12:57;;;;;;;;;;;18.00;49.00;;;;;;5103960;27;42839;-75
2021/12/23 01:17:57;;;;;;;;;;;18.00;49.00;;;;;;5105034;27;43776;-75
2021/12/23 01:20:27;;;;;;;;;;;18.00;49.00;;;;;;5103626;27;42961;-75
2021/12/23 01:22:54;;;;;;;;;;;18.00;49.00;;;;;;5104727;27;42866;-74
2021/12/23 01:25:20;;;;;;;;;;;18.00;49.00;;;;;;5104540;27;42947;-75
2021/12/23 01:27:46;;;;;;;;;;;18.00;49.00;;;;;;5104872;27;42963;-77
2021/12/23 01:30:12;;;;;;;;;;;18.00;49.00;;;;;;5099336;27;43366;-77
2021/12/23 01:32:38;;;;;;;;;;;18.00;49.00;;;;;;5103902;27;43016;-82
2021/12/23 01:35:03;;;;;;;;;;;18.00;49.00;;;;;;5107619;27;42836;-82
2021/12/23 01:37:29;;;;;;;;;;;18.00;49.00;;;;;;5108538;27;42993;-83
2021/12/23 01:39:54;;;;;;;;;;;18.00;48.90;;;;;;5108536;27;42992;-78
2021/12/23 01:42:20;;;;;;;;;;;18.00;48.90;;;;;;5108579;27;43534;-73
2021/12/23 01:44:45;;;;;;;;;;;18.00;48.90;;;;;;5108100;27;42956;-81
2021/12/23 01:47:11;;;;;;;;;;;18.00;48.90;;;;;;5107880;27;42894;-82
2021/12/23 01:49:36;;;;;;;;;;;18.00;48.90;;;;;;5108128;27;43007;-83
2021/12/23 01:52:02;;;;;;;;;;;17.90;48.80;;;;;;5108098;27;42877;-73
2021/12/23 01:54:28;;;;;;;;;;;17.90;49.30;;;;;;5107594;27;43057;-80
2021/12/23 01:56:53;;;;;;;;;;;17.90;48.80;;;;;;5108319;27;42929;-81
2021/12/23 01:59:20;;;;;;;;;;;17.90;48.70;;;;;;5108423;27;42865;-74
2021/12/23 02:01:46;;;;;;;;;;;17.90;48.70;;;;;;5110561;27;44516;-79
2021/12/23 02:04:11;;;;;;;;;;;17.90;48.70;;;;;;5111936;27;43099;-82
2021/12/23 02:06:37;;;;;;;;;;;17.90;48.70;;;;;;5108249;27;43009;-74
2021/12/23 02:09:03;;;;;;;;;;;17.90;48.70;;;;;;5107976;27;42931;-82
2021/12/23 02:11:28;;;;;;;;;;;17.90;48.60;;;;;;5107789;27;43268;-81
2021/12/23 02:13:54;;;;;;;;;;;17.90;48.60;;;;;;5108015;27;42893;-75
2021/12/23 02:16:20;;;;;;;;;;;17.90;48.60;;;;;;5107941;27;42751;-74
2021/12/23 02:18:45;;;;;;;;;;;17.90;48.60;;;;;;5107509;27;42940;-74
2021/12/23 02:21:11;;;;;;;;;;;17.90;48.60;;;;;;5107008;27;43192;-83
2021/12/23 02:23:38;;;;;;;;;;;17.90;48.60;;;;;;5107377;27;42938;-81
2021/12/23 02:26:03;;;;;;;;;;;17.90;48.50;;;;;;5107265;27;42745;-74
2021/12/23 02:28:29;;;;;;;;;;;17.90;49.00;;;;;;5107447;27;42865;-82
2021/12/23 02:30:54;;;;;;;;;;;17.90;48.60;;;;;;5107028;27;42830;-76
2021/12/23 02:33:21;;;;;;;;;;;17.90;48.60;;;;;;5106910;27;42937;-76
2021/12/23 02:35:47;;;;;;;;;;;17.90;48.60;;;;;;5107566;27;43047;-82
2021/12/23 02:38:12;;;;;;;;;;;17.80;48.50;;;;;;5107509;27;43357;-83
2021/12/23 02:40:39;;;;;;;;;;;17.90;48.60;;;;;;5107092;27;42928;-75
2021/12/23 02:43:10;;;;;;;;;;;17.90;48.60;;;;;;5107147;27;42908;-75
2021/12/23 02:45:36;;;;;;;;;;;17.90;48.60;;;;;;5105613;27;42881;-73
2021/12/23 02:48:02;;;;;;;;;;;17.80;48.60;;;;;;5107382;27;43072;-73
2021/12/23 02:50:27;;;;;;;;;;;17.80;48.50;;;;;;5107025;27;42892;-73
2021/12/23 02:52:53;;;;;;;;;;;17.80;48.50;;;;;;5107667;27;42844;-73
2021/12/23 02:55:19;;;;;;;;;;;17.80;48.50;;;;;;5107364;27;43901;-81
2021/12/23 02:57:45;;;;;;;;;;;17.80;48.50;;;;;;5107370;27;42979;-74
2021/12/23 03:00:10;;;;;;;;;;;17.80;48.50;;;;;;5106443;27;43535;-81
2021/12/23 03:02:37;;;;;;;;;;;17.80;48.50;;;;;;5106811;27;42898;-73
2021/12/23 03:05:02;;;;;;;;;;;17.80;48.50;;;;;;5106990;27;42967;-77
2021/12/23 03:07:28;;;;;;;;;;;17.80;48.50;;;;;;5106863;27;42952;-74
2021/12/23 03:09:53;;;;;;;;;;;17.80;48.50;;;;;;5106339;27;43749;-81
2021/12/23 03:12:19;;;;;;;;;;;17.80;48.50;;;;;;5106970;27;42759;-74
2021/12/23 03:14:44;;;;;;;;;;;17.80;48.50;;;;;;5106980;27;42960;-73
2021/12/23 03:17:10;;;;;;;;;;;17.80;48.50;;;;;;5106944;27;42929;-73
2021/12/23 03:19:35;;;;;;;;;;;17.80;48.50;;;;;;5106825;27;44004;-78
2021/12/23 03:22:01;;;;;;;;;;;17.80;48.50;;;;;;5106779;27;42973;-82
2021/12/23 03:24:27;;;;;;;;;;;17.80;48.50;;;;;;5106756;27;42903;-74
2021/12/23 03:26:52;;;;;;;;;;;17.80;48.50;;;;;;5107067;27;42955;-73
2021/12/23 03:29:18;;;;;;;;;;;17.80;48.50;;;;;;5106240;27;43685;-76
2021/12/23 03:31:43;;;;;;;;;;;17.80;48.50;;;;;;5106297;27;42948;-73
2021/12/23 03:34:09;;;;;;;;;;;17.80;48.40;;;;;;5105639;27;43294;-80
2021/12/23 03:36:34;;;;;;;;;;;17.80;48.40;;;;;;5105929;27;42964;-81
2021/12/23 03:39:00;;;;;;;;;;;17.70;48.40;;;;;;5105903;27;42933;-75
2021/12/23 03:41:25;;;;;;;;;;;17.70;48.30;;;;;;5105568;27;42893;-73
2021/12/23 03:43:51;;;;;;;;;;;17.80;48.40;;;;;;5106070;27;42901;-72
2021/12/23 03:46:17;;;;;;;;;;;17.80;48.40;;;;;;5106094;27;42908;-82
2021/12/23 03:48:42;;;;;;;;;;;17.80;48.30;;;;;;5105528;27;43070;-74
2021/12/23 03:51:08;;;;;;;;;;;17.80;48.30;;;;;;5105348;27;43106;-73
2021/12/23 03:53:33;;;;;;;;;;;17.70;48.30;;;;;;5105810;27;42868;-80
2021/12/23 03:55:59;;;;;;;;;;;17.70;48.20;;;;;;5106874;27;42737;-74
2021/12/23 03:58:24;;;;;;;;;;;17.70;48.20;;;;;;5106084;27;43853;-74
2021/12/23 04:00:50;;;;;;;;;;;17.70;48.20;;;;;;5105885;27;42968;-75
2021/12/23 04:03:15;;;;;;;;;;;17.70;48.10;;;;;;5105454;27;42936;-74
2021/12/23 04:05:41;;;;;;;;;;;17.70;48.20;;;;;;5105666;27;42883;-81
2021/12/23 04:08:06;;;;;;;;;;;17.70;48.10;;;;;;5104980;27;43553;-75
2021/12/23 04:10:32;;;;;;;;;;;17.70;48.10;;;;;;5105986;27;42848;-84
2021/12/23 04:12:58;;;;;;;;;;;17.70;48.10;;;;;;5106155;27;42943;-75
2021/12/23 04:15:24;;;;;;;;;;;17.70;48.10;;;;;;5105584;27;42888;-80
2021/12/23 04:17:49;;;;;;;;;;;17.70;48.00;;;;;;5105954;27;42904;-84
2021/12/23 04:20:19;;;;;;;;;;;17.70;48.00;;;;;;5105390;27;42844;-82
2021/12/23 04:22:46;;;;;;;;;;;17.70;48.00;;;;;;5103723;27;45386;-74
2021/12/23 04:25:12;;;;;;;;;;;17.70;48.00;;;;;;5105632;27;43020;-73
2021/12/23 04:27:37;;;;;;;;;;;17.70;48.00;;;;;;5105215;27;43548;-74
2021/12/23 04:30:04;;;;;;;;;;;17.70;48.00;;;;;;5112639;27;43010;-81
2021/12/23 04:32:29;;;;;;;;;;;17.70;48.00;;;;;;5125596;27;43854;-82
2021/12/23 04:34:55;;;;;;;;;;;17.70;47.90;;;;;;5122720;27;42966;-78
2021/12/23 04:37:20;;;;;;;;;;;17.70;48.00;;;;;;5104750;27;43003;-73
2021/12/23 04:39:46;;;;;;;;;;;17.70;47.90;;;;;;5105558;27;43073;-78
2021/12/23 04:42:11;;;;;;;;;;;17.70;47.90;;;;;;5105270;27;43652;-77
2021/12/23 04:44:37;;;;;;;;;;;17.60;47.90;;;;;;5105413;27;42719;-82
2021/12/23 04:47:03;;;;;;;;;;;17.60;47.80;;;;;;5105308;27;43028;-73
2021/12/23 04:49:28;;;;;;;;;;;17.60;47.80;;;;;;5104868;27;42889;-82
2021/12/23 04:51:54;;;;;;;;;;;17.70;47.90;;;;;;5104434;27;43619;-73
2021/12/23 04:54:19;;;;;;;;;;;17.60;47.80;;;;;;5104744;27;42900;-74
2021/12/23 04:56:45;;;;;;;;;;;17.60;47.80;;;;;;5105179;27;43450;-74
2021/12/23 04:59:10;;;;;;;;;;;17.60;47.80;;;;;;5105427;27;42833;-74
2021/12/23 05:01:36;;;;;;;;;;;17.60;47.70;;;;;;5105654;27;43615;-77
2021/12/23 05:04:02;;;;;;;;;;;17.60;48.20;;;;;;5109207;27;43146;-77
2021/12/23 05:06:28;;;;;;;;;;;17.60;47.80;;;;;;5104241;27;42927;-84
2021/12/23 05:08:53;;;;;;;;;;;17.60;47.70;;;;;;5105767;27;42980;-82
2021/12/23 05:11:19;;;;;;;;;;;17.60;47.70;;;;;;5108469;27;42974;-73
2021/12/23 05:13:47;;;;;;;;;;;17.60;47.60;;;;;;5108779;27;42870;-84
2021/12/23 05:16:13;;;;;;;;;;;17.60;47.60;;;;;;5109138;27;43646;-78
2021/12/23 05:18:39;;;;;;;;;;;18.60;48.10;;;;;;5119270;27;43030;-81
2021/12/23 05:21:06;;;;;;;;;;;17.60;47.50;;;;;;5122011;27;44096;-75
2021/12/23 05:23:32;;;;;;;;;;;17.60;47.50;;;;;;5128678;27;43066;-75
2021/12/23 05:25:57;;;;;;;;;;;17.60;47.50;;;;;;5129483;27;43481;-73
2021/12/23 05:28:23;;;;;;;;;;;17.60;47.50;;;;;;5129026;27;42910;-81
2021/12/23 05:30:48;;;;;;;;;;;17.60;47.50;;;;;;5129193;27;43062;-72
2021/12/23 05:33:14;;;;;;;;;;;17.60;47.40;;;;;;5129622;27;42893;-72
2021/12/23 05:35:39;;;;;;;;;;;17.60;47.40;;;;;;5130432;27;43009;-77
2021/12/23 05:38:05;;;;;;;;;;;17.60;47.40;;;;;;5122126;27;42834;-79
2021/12/23 05:40:32;;;;;;;;;;;17.60;47.40;;;;;;5108499;27;42964;-76
2021/12/23 05:42:58;;;;;;;;;;;17.60;47.40;;;;;;5108403;27;42933;-81
2021/12/23 05:45:24;;;;;;;;;;;17.60;47.40;;;;;;5108760;27;42821;-82
2021/12/23 05:47:50;;;;;;;;;;;17.60;47.30;;;;;;5108091;27;43184;-72
2021/12/23 05:50:16;;;;;;;;;;;17.60;47.30;;;;;;5107833;27;44288;-74
2021/12/23 05:52:42;;;;;;;;;;;17.60;47.30;;;;;;5117325;27;42937;-72
2021/12/23 05:55:09;;;;;;;;;;;17.60;47.30;;;;;;5118620;27;43236;-72
2021/12/23 05:57:35;;;;;;;;;;;17.60;47.30;;;;;;5110384;27;42897;-80
2021/12/23 06:00:01;;;;;;;;;;;17.60;47.30;;;;;;5111075;27;42876;-73
2021/12/23 06:02:26;;;;;;;;;;;17.50;47.30;;;;;;5108239;27;43015;-79
2021/12/23 06:04:52;;;;;;;;;;;17.60;47.30;;;;;;5110567;27;42972;-77
2021/12/23 06:07:18;;;;;;;;;;;17.60;47.30;;;;;;5112370;27;44006;-74
2021/12/23 06:09:43;;;;;;;;;;;17.50;47.20;;;;;;5122769;27;42792;-73
2021/12/23 06:12:09;;;;;;;;;;;17.50;47.20;;;;;;5118828;27;43619;-74
2021/12/23 06:14:35;;;;;;;;;;;17.60;47.30;;;;;;5117637;27;44263;-73
2021/12/23 06:17:01;;;;;;;;;;;17.50;47.20;;;;;;5121543;27;43177;-73
2021/12/23 06:19:26;;;;;;;;;;;17.50;47.20;;;;;;5107644;27;43527;-71
2021/12/23 06:21:52;;;;;;;;;;;17.60;47.20;;;;;;5106280;27;43118;-71
2021/12/23 06:24:18;;;;;;;;;;;17.50;47.20;;;;;;5114378;27;43366;-72
2021/12/23 06:26:43;;;;;;;;;;;17.50;47.30;;;;;;5106632;27;43024;-73
2021/12/23 06:29:09;;;;;;;;;;;17.50;47.40;;;;;;5106970;27;43011;-73
2021/12/23 06:31:35;;;;;;;;;;;17.50;47.40;;;;;;5119951;27;43019;-73
2021/12/23 06:34:00;;;;;;;;;;;17.50;47.40;;;;;;5123147;27;43232;-73
2021/12/23 06:36:26;;;;;;;;;;;17.50;48.00;;;;;;5106381;27;42909;-73
2021/12/23 06:38:51;;;;;;;;;;;17.30;43.90;;;;;;5107025;27;44190;-73
2021/12/23 06:41:18;;;;;;;;;;;16.30;41.20;;;;;;5107094;27;42764;-73
2021/12/23 06:43:44;;;;;;;;;;;15.60;39.60;;;;;;5106589;27;43313;-73
2021/12/23 06:46:09;;;;;;;;;;;15.00;39.80;;;;;;5106672;27;42907;-73
2021/12/23 06:48:35;;;;;;;;;;;14.80;39.70;;;;;;5106680;27;44189;-72
2021/12/23 06:51:01;;;;;;;;;;;14.70;39.80;;;;;;5107182;27;42900;-73
2021/12/23 06:53:27;;;;;;;;;;;14.50;39.30;;;;;;5107329;27;43903;-73
2021/12/23 06:55:54;;;;;;;;;;;14.20;39.20;;;;;;5107456;27;42977;-77
2021/12/23 06:58:22;;;;;;;;;;;14.10;39.10;;;;;;5106838;27;44013;-76
2021/12/23 07:00:48;;;;;;;;;;;14.10;39.30;;;;;;5116973;27;43033;-74
2021/12/23 07:03:14;;;;;;;;;;;14.00;39.00;;;;;;5115004;27;42782;-75
2021/12/23 07:05:40;;;;;;;;;;;13.90;39.10;;;;;;5115869;27;42986;-76
2021/12/23 07:08:10;;;;;;;;;;;13.80;39.10;;;;;;5115881;27;42991;-76
2021/12/23 07:10:36;;;;;;;;;;;13.70;39.00;;;;;;5111458;27;42990;-75
2021/12/23 07:13:02;;;;;;;;;;;13.60;39.00;;;;;;5112305;27;43681;-76
2021/12/23 07:15:28;;;;;;;;;;;13.50;39.00;;;;;;5107533;27;42931;-76
2021/12/23 07:17:54;;;;;;;;;;;13.40;38.90;;;;;;5110213;27;42971;-75
2021/12/23 07:20:21;;;;;;;;;;;13.40;39.00;;;;;;5117483;27;43141;-83
2021/12/23 07:22:46;;;;;;;;;;;13.20;38.90;;;;;;5117883;27;43582;-75
2021/12/23 07:25:13;;;;;;;;;;;13.20;38.90;;;;;;5117761;27;43112;-76
2021/12/23 07:27:39;;;;;;;;;;;13.40;39.80;;;;;;5112962;27;42940;-78
2021/12/23 07:30:05;;;;;;;;;;;14.00;40.60;;;;;;5115657;27;42989;-76
2021/12/23 07:32:31;;;;;;;;;;;14.50;41.10;;;;;;5113832;27;42942;-75
2021/12/23 07:34:56;;;;;;;;;;;15.00;41.50;;;;;;5115441;27;42942;-77
2021/12/23 07:37:22;;;;;;;;;;;15.20;41.40;;;;;;5119211;27;42955;-72
2021/12/23 07:39:48;;;;;;;;;;;15.40;41.40;;;;;;5111674;27;43133;-73
2021/12/23 07:42:15;;;;;;;;;;;15.60;41.40;;;;;;5112680;27;43038;-73
2021/12/23 07:44:44;;;;;;;;;;;15.70;41.40;;;;;;5112875;27;42994;-73
2021/12/23 07:47:10;;;;;;;;;;;15.80;41.30;;;;;;5112618;27;43597;-73
2021/12/23 07:49:36;;;;;;;;;;;16.00;41.40;;;;;;5113225;27;43003;-73
2021/12/23 07:52:02;;;;;;;;;;;16.00;41.40;;;;;;5115230;27;43881;-73
2021/12/23 07:54:27;;;;;;;;;;;16.10;41.50;;;;;;5110903;27;43469;-73
2021/12/23 07:56:53;;;;;;;;;;;16.10;41.50;;;;;;5105605;27;42920;-73
2021/12/23 07:59:18;;;;;;;;;;;16.20;41.60;;;;;;5112931;27;42960;-72
2021/12/23 08:01:44;;;;;;;;;;;16.30;41.70;;;;;;5114273;27;43051;-72
2021/12/23 08:04:09;;;;;;;;;;;16.30;41.80;;;;;;5114290;27;43106;-72
2021/12/23 08:06:35;;;;;;;;;;;16.30;41.80;;;;;;5115587;27;43703;-73
2021/12/23 08:09:01;;;;;;;;;;;16.30;41.90;;;;;;5110877;27;42944;-77
2021/12/23 08:11:28;;;;;;;;;;;16.40;41.90;;;;;;5113889;27;64312;-72
2021/12/23 08:13:53;;;;;;;;;;;16.50;42.00;;;;;;5114880;27;43071;-73
2021/12/23 08:16:19;;;;;;;;;;;16.60;42.10;;;;;;5109037;27;43309;-73
2021/12/23 08:18:44;;;;;;;;;;;16.70;42.10;;;;;;5112890;27;42909;-72
2021/12/23 08:21:10;;;;;;;;;;;16.70;42.20;;;;;;5109590;27;44327;-74
2021/12/23 08:23:36;;;;;;;;;;;16.70;41.00;;;;;;5113095;27;42972;-72
2021/12/23 08:26:05;;;;;;;;;;;16.30;39.60;;;;;;5114220;27;43481;-72
2021/12/23 08:28:31;;;;;;;;;;;16.10;39.10;;;;;;5120061;27;42938;-72
2021/12/23 08:30:57;;;;;;;;;;;16.10;39.70;;;;;;5111543;27;44407;-72
2021/12/23 08:33:23;;;;;;;;;;;16.20;40.20;;;;;;5106607;27;42952;-72
2021/12/23 08:35:48;;;;;;;;;;;16.40;40.80;;;;;;5120729;27;42941;-72
2021/12/23 08:38:14;;;;;;;;;;;16.50;41.20;;;;;;5112667;27;42929;-72
2021/12/23 08:40:39;;;;;;;;;;;16.60;41.40;;;;;;5112287;27;42995;-73
2021/12/23 08:43:05;;;;;;;;;;;16.70;41.50;;;;;;5109717;27;42972;-74
2021/12/23 08:45:32;;;;;;;;;;;16.70;41.60;;;;;;5107048;27;43323;-73
2021/12/23 08:47:57;;;;;;;;;;;16.80;41.80;;;;;;5110806;27;43421;-72
2021/12/23 08:50:24;;;;;;;;;;;16.80;41.90;;;;;;5112190;27;43237;-72
2021/12/23 08:52:50;;;;;;;;;;;16.90;42.00;;;;;;5104669;27;42916;-72
2021/12/23 08:55:15;;;;;;;;;;;16.90;42.10;;;;;;5103501;27;44478;-72
2021/12/23 08:57:41;;;;;;;;;;;16.90;42.10;;;;;;5103082;27;43004;-73
2021/12/23 09:00:09;;;;;;;;;;;16.90;42.20;;;;;;5103799;27;42883;-72
2021/12/23 09:02:34;;;;;;;;;;;18.60;43.10;;;;;;5105157;27;42872;-73
2021/12/23 09:05:00;;;;;;;;;;;17.00;42.40;;;;;;5105286;27;43631;-72
2021/12/23 09:07:26;;;;;;;;;;;17.00;42.40;;;;;;5104506;27;42848;-73
2021/12/23 09:09:51;;;;;;;;;;;17.00;42.40;;;;;;5105271;27;43446;-73
2021/12/23 09:12:17;;;;;;;;;;;17.00;42.50;;;;;;5104930;27;42847;-73
2021/12/23 09:14:43;;;;;;;;;;;17.00;42.60;;;;;;5103689;27;42963;-72
2021/12/23 09:17:09;;;;;;;;;;;17.10;42.70;;;;;;5105095;27;42778;-72
2021/12/23 09:19:34;;;;;;;;;;;17.10;42.70;;;;;;5103980;27;42877;-75
2021/12/23 09:22:00;;;;;;;;;;;17.10;42.70;;;;;;5103664;27;42963;-72
2021/12/23 09:24:27;;;;;;;;;;;17.10;42.70;;;;;;5103905;27;43008;-74
2021/12/23 09:27:09;;;;;;;;;;;17.10;42.80;;;;;;5104519;27;42818;-73
2021/12/23 09:34:45;;;;;;;;;;;17.20;43.00;;;;;;5104340;27;43164;-73
2021/12/23 09:37:10;;;;;;;;;;;17.20;43.00;;;;;;5103632;27;43032;-73
2021/12/23 09:39:36;;;;;;;;;;;17.20;43.10;;;;;;5103904;27;42875;-72
2021/12/23 09:42:03;;;;;;;;;;;17.20;43.20;;;;;;5104509;27;42829;-72
2021/12/23 09:44:29;;;;;;;;;;;17.20;43.20;;;;;;5103438;27;43177;-73
2021/12/23 09:46:57;;;;;;;;;;;17.20;43.20;;;;;;5104194;27;42885;-73
2021/12/23 09:49:24;;;;;;;;;;;17.20;43.20;;;;;;5104156;27;42945;-72
2021/12/23 09:51:49;;;;;;;;;;;17.30;43.30;;;;;;5104003;27;42914;-72
2021/12/23 09:54:17;;;;;;;;;;;17.30;43.40;;;;;;5105542;27;43448;-75
2021/12/23 09:56:42;;;;;;;;;;;17.30;43.20;;;;;;5107838;27;42896;-74
2021/12/23 09:59:09;;;;;;;;;;;17.30;43.70;;;;;;5118597;27;43604;-74
2021/12/23 10:01:35;;;;;;;;;;;17.30;43.90;;;;;;5127641;27;42996;-73
2021/12/23 10:04:00;;;;;;;;;;;17.40;44.20;;;;;;5127611;27;43137;-74
2021/12/23 10:06:26;;;;;;;;;;;17.40;44.20;;;;;;5120565;27;43232;-73
2021/12/23 10:08:52;;;;;;;;;;;17.40;44.20;;;;;;5121480;27;43750;-74
2021/12/23 10:38:01;;;;;;;;;;;17.60;45.10;;;;;;5127502;27;42857;-76
2021/12/23 10:40:29;;;;;;;;;;;17.60;45.00;;;;;;5127588;27;42893;-75
2021/12/23 10:42:55;;;;;;;;;;;17.60;45.10;;;;;;5127746;27;42864;-75
2021/12/23 10:45:20;;;;;;;;;;;17.60;45.20;;;;;;5127246;27;43764;-74
2021/12/23 10:47:55;;;;;;;;;;;17.60;45.10;;;;;;5127996;27;42920;-76
2021/12/23 10:50:30;;;;;;;;;;;17.60;45.20;;;;;;5127479;27;42947;-75
2021/12/23 10:53:01;;;;;;;;;;;17.70;45.20;;;;;;5127599;27;43346;-75
2021/12/23 10:58:05;;;;;;;;;;;17.70;45.30;;;;;;5116814;27;42909;-90
2021/12/23 11:00:40;;;;;;;;;;;17.70;45.20;;;;;;5114081;27;42962;-90
2021/12/23 11:05:47;;;;;;;;;;;17.70;45.30;;;;;;5122929;27;43843;-91
2021/12/23 11:08:26;;;;;;;;;;;17.70;45.30;;;;;;5118243;27;42938;-91
2021/12/23 11:40:56;;;;;;;;;;;17.90;45.50;;;;;;5104850;27;43026;-84
2021/12/23 11:43:33;;;;;;;;;;;17.90;45.40;;;;;;5110317;27;42953;-82
2021/12/23 11:45:59;;;;;;;;;;;17.90;45.50;;;;;;5123433;27;42910;-81
2021/12/23 11:48:25;;;;;;;;;;;17.90;44.20;;;;;;5109515;27;42923;-76
2021/12/23 11:50:56;;;;;;;;;;;17.80;42.20;;;;;;5116383;27;43004;-77
2021/12/23 11:53:22;;;;;;;;;;;17.60;42.00;;;;;;5110984;27;43066;-75
2021/12/23 11:55:48;;;;;;;;;;;17.60;43.40;;;;;;5106909;27;42920;-74
2021/12/23 11:58:14;;;;;;;;;;;17.70;44.20;;;;;;5104239;27;43652;-76
2021/12/23 12:00:43;;;;;;;;;;;17.80;44.40;;;;;;5104697;27;42795;-75
2021/12/23 12:03:10;;;;;;;;;;;17.80;44.50;;;;;;5102412;27;42924;-75
2021/12/23 12:05:36;;;;;;;;;;;17.80;44.60;;;;;;5104744;27;42980;-73
2021/12/23 12:08:08;;;;;;;;;;;17.90;44.70;;;;;;5104120;27;43012;-74
2021/12/23 12:10:33;;;;;;;;;;;17.90;44.70;;;;;;5105367;27;42968;-74
2021/12/23 12:13:01;;;;;;;;;;;17.90;44.80;;;;;;5104516;27;43430;-76
2021/12/23 12:15:35;;;;;;;;;;;17.90;44.80;;;;;;5105440;27;42782;-77
2021/12/23 12:18:02;;;;;;;;;;;17.90;44.80;;;;;;5103575;27;44612;-74
2021/12/23 12:20:44;;;;;;;;;;;17.90;44.80;;;;;;5105150;27;42987;-75
2021/12/23 12:23:13;;;;;;;;;;;17.90;44.90;;;;;;5104983;27;43532;-76
2021/12/23 12:25:40;;;;;;;;;;;17.90;44.90;;;;;;5105276;27;42868;-76
2021/12/23 12:28:06;;;;;;;;;;;18.00;45.00;;;;;;5104314;27;43747;-76
2021/12/23 12:30:37;;;;;;;;;;;17.90;45.00;;;;;;5104891;27;42886;-75
2021/12/23 12:33:29;;;;;;;;;;;17.90;45.00;;;;;;5105063;27;43605;-76
2021/12/23 12:35:57;;;;;;;;;;;18.00;45.10;;;;;;5102598;27;42930;-75
2021/12/23 12:38:23;;;;;;;;;;;18.00;45.10;;;;;;5104983;27;43701;-74
2021/12/23 12:41:07;;;;;;;;;;;18.00;45.20;;;;;;5104853;27;43003;-75
2021/12/23 12:49:18;;;;;;;;;;;18.00;45.20;;;;;;5114314;27;42936;-80
2021/12/23 12:54:48;;;;;;;;;;;18.00;45.30;;;;;;5101226;27;43263;-82
2021/12/23 12:57:14;;;;;;;;;;;18.00;45.30;;;;;;5102448;27;43124;-78
2021/12/23 12:59:42;;;;;;;;;;;18.00;45.00;;;;;;5102486;27;43367;-73
2021/12/23 13:02:22;;;;;;;;;;;17.70;42.50;;;;;;5090880;27;43174;-91
2021/12/23 13:04:52;;;;;;;;;;;17.20;40.20;;;;;;5101513;27;42922;-77
2021/12/23 13:07:23;;;;;;;;;;;16.70;39.50;;;;;;5101072;27;43066;-77
2021/12/23 13:09:52;;;;;;;;;;;16.50;39.00;;;;;;5102093;27;43000;-78
2021/12/23 13:12:30;;;;;;;;;;;16.20;38.80;;;;;;5101839;27;42869;-78
2021/12/23 13:15:16;;;;;;;;;;;16.10;38.80;;;;;;5102148;27;42994;-81
2021/12/23 13:17:46;;;;;;;;;;;16.20;39.30;;;;;;5102372;27;42838;-86
2021/12/23 13:20:12;;;;;;;;;;;16.20;39.30;;;;;;5101680;27;43029;-85
2021/12/23 13:22:39;;;;;;;;;;;16.40;40.00;;;;;;5102141;27;43024;-84
2021/12/23 13:25:05;;;;;;;;;;;16.70;40.40;;;;;;5109959;27;43941;-83
2021/12/23 13:27:31;;;;;;;;;;;16.90;40.50;;;;;;5124577;27;42962;-78
2021/12/23 13:30:04;;;;;;;;;;;17.10;40.70;;;;;;5104515;27;43809;-79
2021/12/23 13:32:29;;;;;;;;;;;17.20;41.10;;;;;;5105473;27;42993;-78
2021/12/23 13:34:55;;;;;;;;;;;17.30;41.30;;;;;;5106388;27;43545;-77
2021/12/23 13:37:20;;;;;;;;;;;17.40;41.50;;;;;;5107981;27;42983;-78
2021/12/23 13:39:48;;;;;;;;;;;17.50;41.60;;;;;;5107683;27;42789;-82
2021/12/23 13:42:13;;;;;;;;;;;17.50;41.70;;;;;;5107975;27;43220;-74
2021/12/23 13:44:39;;;;;;;;;;;17.50;40.20;;;;;;5108235;27;43322;-77
2021/12/23 13:47:04;;;;;;;;;;;17.50;40.90;;;;;;5126022;27;42950;-78
2021/12/23 13:49:36;;;;;;;;;;;17.60;41.60;;;;;;5126591;27;42971;-76
2021/12/23 13:52:03;;;;;;;;;;;17.60;41.90;;;;;;5128597;27;42845;-76
2021/12/23 13:54:33;;;;;;;;;;;17.70;42.10;;;;;;5128926;27;43489;-79
2021/12/23 13:56:58;;;;;;;;;;;17.70;42.20;;;;;;5128792;27;42918;-77
2021/12/23 13:59:25;;;;;;;;;;;17.80;42.30;;;;;;5129355;27;42842;-77
2021/12/23 14:01:53;;;;;;;;;;;17.80;42.50;;;;;;5128707;27;42878;-77
2021/12/23 14:04:38;;;;;;;;;;;17.80;42.60;;;;;;5128493;27;42868;-78
2021/12/23 14:07:07;;;;;;;;;;;17.90;42.70;;;;;;5128366;27;42912;-78
2021/12/23 14:09:34;;;;;;;;;;;17.90;42.90;;;;;;5126675;27;43855;-77
2021/12/23 14:12:01;;;;;;;;;;;17.90;42.90;;;;;;5127761;27;42925;-77
2021/12/23 14:14:27;;;;;;;;;;;18.00;43.10;;;;;;5127780;27;42897;-77
2021/12/23 14:16:52;;;;;;;;;;;18.00;43.20;;;;;;5128958;27;42814;-77
2021/12/23 14:19:26;;;;;;;;;;;18.00;43.30;;;;;;5127865;27;42967;-77
2021/12/23 14:24:54;;;;;;;;;;;18.00;43.60;;;;;;5084275;28;42931;-77
2021/12/23 14:27:19;;;;;;;;;;;18.00;43.70;;;;;;5118603;27;42926;-77
2021/12/23 14:29:48;;;;;;;;;;;18.00;43.80;;;;;;5128100;27;43669;-76
2021/12/23 14:32:14;;;;;;;;;;;18.10;43.90;;;;;;5128186;27;42981;-77
2021/12/23 14:35:14;;;;;;;;;;;18.10;43.90;;;;;;5127120;27;43411;-77
2021/12/23 14:37:39;;;;;;;;;;;18.10;44.00;;;;;;5127091;27;42892;-77
2021/12/23 14:40:05;;;;;;;;;;;18.10;44.10;;;;;;5127416;27;43760;-77
2021/12/23 14:42:32;;;;;;;;;;;18.10;44.30;;;;;;5126581;27;42854;-77
2021/12/23 14:45:03;;;;;;;;;;;18.10;44.30;;;;;;5127821;27;42812;-77
2021/12/23 14:47:32;;;;;;;;;;;18.10;44.40;;;;;;5127932;27;42967;-77
2021/12/23 14:50:12;;;;;;;;;;;18.10;44.40;;;;;;5127844;27;43401;-77
2021/12/23 14:52:41;;;;;;;;;;;18.20;44.50;;;;;;5127891;27;42974;-77
2021/12/23 14:55:06;;;;;;;;;;;18.20;44.60;;;;;;5127505;27;42970;-77
2021/12/23 14:57:33;;;;;;;;;;;18.20;44.70;;;;;;5128099;27;42989;-78
2021/12/23 15:00:10;;;;;;;;;;;18.20;44.70;;;;;;5127586;27;42919;-77
2021/12/23 15:02:36;;;;;;;;;;;18.20;45.30;;;;;;5126564;27;42851;-76
2021/12/23 15:05:04;;;;;;;;;;;18.20;44.80;;;;;;5127598;27;43072;-78
2021/12/23 15:07:45;;;;;;;;;;;18.20;44.80;;;;;;5127761;27;42942;-77
2021/12/23 15:10:11;;;;;;;;;;;18.20;44.80;;;;;;5127115;27;42888;-77
2021/12/23 15:12:36;;;;;;;;;;;18.20;45.00;;;;;;5127276;27;43220;-77
2021/12/23 15:15:06;;;;;;;;;;;18.20;44.90;;;;;;5127676;27;42948;-77
2021/12/23 15:17:41;;;;;;;;;;;18.30;45.00;;;;;;5127106;27;42867;-75
2021/12/23 15:20:17;;;;;;;;;;;18.30;45.10;;;;;;5127094;27;42911;-78
2021/12/23 15:22:44;;;;;;;;;;;18.30;45.10;;;;;;5125469;27;43097;-77
2021/12/23 15:25:11;;;;;;;;;;;18.30;45.10;;;;;;5126377;27;43650;-78
2021/12/23 15:27:38;;;;;;;;;;;18.30;45.10;;;;;;5127141;27;43142;-77
2021/12/23 15:30:17;;;;;;;;;;;18.30;45.20;;;;;;5127009;27;43468;-77
2021/12/23 15:32:43;;;;;;;;;;;18.30;45.20;;;;;;5126357;27;42939;-78
2021/12/23 15:35:15;;;;;;;;;;;18.30;45.30;;;;;;5127049;27;43700;-77
2021/12/23 15:37:41;;;;;;;;;;;18.30;45.30;;;;;;5127169;27;42947;-76
2021/12/23 15:40:09;;;;;;;;;;;18.30;45.20;;;;;;5126094;27;42962;-78
2021/12/23 15:42:34;;;;;;;;;;;18.30;45.30;;;;;;5126703;27;42974;-77
2021/12/23 15:45:00;;;;;;;;;;;18.30;45.40;;;;;;5126342;27;43900;-78